Time;durP1;ratioP1;P1;durP2;ratioP2;P2;SDS_P1;SDS_P2;PMS_P1;PMS_P2;Temp;Humidity;BMP_temperature;BMP_pressure;BME280_temperature;BME280_humidity;BME280_pressure;Samples;Min_cycle;Max_cycle;Signal;HPM_P1;HPM_P2
2022/04/25 00:02:19;;;;;;;14.15;4.38;;;;;;;;;;5032563;28;20057;-74
2022/04/25 00:04:47;;;;;;;16.30;4.30;;;;;;;;;;5030297;28;20041;-74
2022/04/25 00:07:16;;;;;;;15.95;4.32;;;;;;;;;;5036835;28;20462;-74
2022/04/25 00:09:44;;;;;;;13.27;4.45;;;;;;;;;;5030343;28;20052;-74
2022/04/25 00:12:11;;;;;;;18.20;3.95;;;;;;;;;;5029159;28;20441;-74
2022/04/25 00:14:38;;;;;;;16.23;4.57;;;;;;;;;;5036065;28;20689;-74
2022/04/25 00:17:06;;;;;;;16.27;4.47;;;;;;;;;;5032473;28;20041;-74
2022/04/25 00:19:33;;;;;;;11.73;3.80;;;;;;;;;;5032451;28;20056;-74
2022/04/25 00:22:00;;;;;;;14.30;3.80;;;;;;;;;;5036925;28;20068;-74
2022/04/25 00:24:29;;;;;;;13.88;4.28;;;;;;;;;;5033837;28;20046;-74
2022/04/25 00:26:56;;;;;;;19.02;5.13;;;;;;;;;;5039628;28;20163;-74
2022/04/25 00:29:24;;;;;;;15.05;4.30;;;;;;;;;;5031505;28;20053;-74
2022/04/25 00:31:51;;;;;;;11.32;4.32;;;;;;;;;;5032278;28;20114;-74
2022/04/25 00:34:18;;;;;;;12.73;4.65;;;;;;;;;;5035640;28;20578;-74
2022/04/25 00:36:45;;;;;;;11.93;4.25;;;;;;;;;;5032553;28;20057;-74
2022/04/25 00:39:12;;;;;;;12.60;4.03;;;;;;;;;;5028335;28;20049;-74
2022/04/25 00:41:41;;;;;;;12.20;3.97;;;;;;;;;;5035030;28;20485;-74
2022/04/25 00:44:08;;;;;;;16.30;3.90;;;;;;;;;;5029745;28;20081;-74
2022/04/25 00:46:37;;;;;;;14.20;4.07;;;;;;;;;;5029170;28;20512;-74
2022/04/25 00:49:04;;;;;;;11.43;3.70;;;;;;;;;;5030106;28;20080;-74
2022/04/25 00:51:31;;;;;;;14.65;4.10;;;;;;;;;;5032032;28;20728;-74
2022/04/25 00:53:58;;;;;;;16.10;4.63;;;;;;;;;;5038613;28;20076;-74
2022/04/25 00:56:27;;;;;;;14.90;4.57;;;;;;;;;;5025872;28;20053;-74
2022/04/25 00:58:56;;;;;;;12.40;4.05;;;;;;;;;;5033162;28;20464;-74
2022/04/25 01:01:23;;;;;;;11.98;3.92;;;;;;;;;;5032512;28;20528;-75
2022/04/25 01:03:50;;;;;;;18.85;5.00;;;;;;;;;;5030038;28;20061;-75
2022/04/25 01:06:18;;;;;;;12.85;4.35;;;;;;;;;;5030531;28;20054;-75
2022/04/25 01:08:45;;;;;;;10.40;4.18;;;;;;;;;;5027897;28;20054;-75
2022/04/25 01:11:13;;;;;;;12.90;4.47;;;;;;;;;;5030084;28;20493;-75
2022/04/25 01:13:43;;;;;;;13.90;4.60;;;;;;;;;;5037233;28;20132;-75
2022/04/25 01:16:12;;;;;;;11.32;4.15;;;;;;;;;;5030138;28;20052;-75
2022/04/25 01:18:39;;;;;;;13.95;4.13;;;;;;;;;;5028419;28;20049;-75
2022/04/25 01:21:08;;;;;;;11.93;4.00;;;;;;;;;;5031706;28;20566;-75
2022/04/25 01:29:08;;;;;;;15.98;4.45;;;;;;;;;;5031370;28;20068;-75
2022/04/25 01:31:35;;;;;;;13.95;4.03;;;;;;;;;;5028799;28;20046;-75
2022/04/25 01:34:04;;;;;;;18.20;4.82;;;;;;;;;;5035543;28;20057;-75
2022/04/25 01:36:31;;;;;;;13.15;3.90;;;;;;;;;;5034711;28;20675;-75
2022/04/25 01:39:00;;;;;;;11.88;3.80;;;;;;;;;;5033434;28;20135;-75
2022/04/25 01:41:27;;;;;;;10.48;4.22;;;;;;;;;;5033294;28;20049;-75
2022/04/25 01:43:54;;;;;;;16.25;4.38;;;;;;;;;;5032022;28;20049;-75
2022/04/25 01:46:21;;;;;;;12.68;4.45;;;;;;;;;;5037843;28;20053;-75
2022/04/25 01:48:48;;;;;;;9.25;4.15;;;;;;;;;;5038337;28;20064;-75
2022/04/25 01:51:16;;;;;;;9.38;4.20;;;;;;;;;;5036073;28;20068;-75
2022/04/25 01:53:46;;;;;;;12.70;4.55;;;;;;;;;;5033079;28;20099;-75
2022/04/25 01:56:14;;;;;;;14.30;4.57;;;;;;;;;;5036122;28;20049;-75
2022/04/25 01:58:41;;;;;;;9.20;4.38;;;;;;;;;;5037321;28;20491;-75
2022/04/25 02:01:09;;;;;;;10.15;4.88;;;;;;;;;;5036507;28;20414;-75
2022/04/25 02:03:36;;;;;;;10.60;4.25;;;;;;;;;;5032469;28;20057;-75
2022/04/25 02:06:03;;;;;;;10.68;4.38;;;;;;;;;;5042418;28;20061;-75
2022/04/25 02:08:30;;;;;;;13.30;5.03;;;;;;;;;;5037588;28;20053;-75
2022/04/25 02:13:43;;;;;;;8.57;4.85;;;;;;;;;;5037072;28;20138;-75
2022/04/25 02:16:11;;;;;;;11.30;5.10;;;;;;;;;;5038108;28;20101;-75
2022/04/25 02:18:39;;;;;;;10.88;5.10;;;;;;;;;;5038345;28;20215;-75
2022/04/25 02:21:06;;;;;;;10.32;4.78;;;;;;;;;;5040066;28;20496;-75
2022/04/25 02:23:34;;;;;;;14.63;5.20;;;;;;;;;;5036976;28;20046;-75
2022/04/25 02:26:01;;;;;;;11.85;5.03;;;;;;;;;;5036067;28;20118;-75
2022/04/25 02:28:28;;;;;;;13.32;6.00;;;;;;;;;;5035137;28;20057;-75
2022/04/25 02:30:58;;;;;;;12.90;5.35;;;;;;;;;;5038188;28;20045;-75
2022/04/25 02:33:26;;;;;;;13.38;5.68;;;;;;;;;;5042146;28;20045;-75
2022/04/25 02:35:53;;;;;;;14.68;5.60;;;;;;;;;;5034458;28;20053;-75
2022/04/25 02:38:20;;;;;;;15.77;5.88;;;;;;;;;;5036747;28;20049;-75
2022/04/25 02:41:04;;;;;;;13.57;5.68;;;;;;;;;;5044658;28;20103;-75
2022/04/25 02:43:32;;;;;;;9.25;5.47;;;;;;;;;;5035438;28;20484;-75
2022/04/25 02:46:00;;;;;;;14.10;5.75;;;;;;;;;;5034769;28;20088;-75
2022/04/25 02:48:28;;;;;;;12.57;4.80;;;;;;;;;;5042292;28;20052;-75
2022/04/25 02:50:55;;;;;;;14.10;5.82;;;;;;;;;;5040007;28;20056;-75
2022/04/25 02:53:24;;;;;;;11.98;5.60;;;;;;;;;;5032182;28;20048;-75
2022/04/25 02:55:52;;;;;;;9.57;5.45;;;;;;;;;;5037166;28;20085;-75
2022/04/25 02:58:19;;;;;;;10.65;5.13;;;;;;;;;;5036205;28;20053;-75
2022/04/25 03:00:46;;;;;;;13.88;5.15;;;;;;;;;;5039126;28;20056;-75
2022/04/25 03:03:15;;;;;;;12.90;5.05;;;;;;;;;;5034099;28;20149;-75
2022/04/25 03:05:43;;;;;;;15.50;5.60;;;;;;;;;;5039399;28;20558;-75
2022/04/25 03:08:11;;;;;;;12.57;5.15;;;;;;;;;;5040645;28;20559;-75
2022/04/25 03:10:38;;;;;;;13.93;5.40;;;;;;;;;;5041657;28;20085;-75
2022/04/25 03:13:07;;;;;;;11.93;5.22;;;;;;;;;;5037634;28;20060;-75
2022/04/25 03:15:37;;;;;;;14.07;5.18;;;;;;;;;;5040937;28;20042;-75
2022/04/25 03:18:04;;;;;;;16.80;5.47;;;;;;;;;;5041614;28;20083;-75
2022/04/25 03:20:33;;;;;;;11.27;5.05;;;;;;;;;;5041517;28;20052;-75
2022/04/25 03:23:00;;;;;;;13.70;5.30;;;;;;;;;;5041895;28;20514;-75
2022/04/25 03:25:28;;;;;;;10.65;4.47;;;;;;;;;;5031063;28;20049;-75
2022/04/25 03:27:56;;;;;;;13.10;5.13;;;;;;;;;;5038125;28;20060;-75
2022/04/25 03:30:23;;;;;;;18.17;5.05;;;;;;;;;;5041345;28;20052;-75
2022/04/25 03:32:50;;;;;;;10.68;4.63;;;;;;;;;;5037082;28;20060;-75
2022/04/25 03:35:18;;;;;;;13.63;4.20;;;;;;;;;;5033696;28;20088;-75
2022/04/25 03:37:48;;;;;;;14.75;5.10;;;;;;;;;;5038644;28;20139;-75
2022/04/25 03:40:15;;;;;;;13.23;4.50;;;;;;;;;;5031314;28;20495;-75
2022/04/25 03:42:44;;;;;;;12.57;4.63;;;;;;;;;;5035520;28;20057;-75
2022/04/25 03:45:12;;;;;;;17.60;4.65;;;;;;;;;;5043855;28;20115;-75
2022/04/25 03:47:40;;;;;;;17.38;5.03;;;;;;;;;;5039366;28;20054;-75
2022/04/25 03:50:08;;;;;;;15.63;4.47;;;;;;;;;;5035112;28;20049;-75
2022/04/25 03:52:35;;;;;;;16.05;4.80;;;;;;;;;;5035228;28;20597;-75
2022/04/25 03:57:52;;;;;;;17.70;4.68;;;;;;;;;;5033575;28;20110;-75
2022/04/25 04:00:19;;;;;;;14.98;3.90;;;;;;;;;;5028473;28;20155;-75
2022/04/25 04:02:47;;;;;;;17.88;4.25;;;;;;;;;;5039196;28;20053;-75
2022/04/25 04:05:14;;;;;;;15.38;4.47;;;;;;;;;;5035310;28;20452;-75
2022/04/25 04:07:42;;;;;;;14.68;4.47;;;;;;;;;;5032046;28;20571;-75
2022/04/25 04:10:11;;;;;;;14.30;4.45;;;;;;;;;;5038354;28;20045;-75
2022/04/25 04:12:38;;;;;;;14.00;4.63;;;;;;;;;;5036933;28;20110;-75
2022/04/25 04:15:06;;;;;;;11.25;4.25;;;;;;;;;;5037965;28;20052;-75
2022/04/25 04:17:34;;;;;;;12.13;4.57;;;;;;;;;;5036195;28;20096;-75
2022/04/25 04:20:02;;;;;;;12.18;4.45;;;;;;;;;;5037902;28;20084;-75
2022/04/25 04:22:31;;;;;;;15.60;4.25;;;;;;;;;;5035896;28;20144;-75
2022/04/25 04:25:00;;;;;;;13.07;4.00;;;;;;;;;;5036939;28;20057;-75
2022/04/25 04:27:31;;;;;;;15.93;4.25;;;;;;;;;;5029388;28;20136;-75
2022/04/25 04:29:58;;;;;;;17.30;4.85;;;;;;;;;;5038617;28;20118;-75
2022/04/25 04:32:30;;;;;;;18.05;4.57;;;;;;;;;;5034087;28;20049;-75
2022/04/25 04:34:57;;;;;;;13.90;4.53;;;;;;;;;;5032546;28;20905;-75
2022/04/25 04:37:25;;;;;;;16.95;4.93;;;;;;;;;;5037316;28;20053;-75
2022/04/25 04:40:28;;;;;;;15.57;4.55;;;;;;;;;;5037298;28;20514;-75
2022/04/25 04:42:43;;;;;;;14.05;4.47;;;;;;;;;;5038282;28;20056;-75
2022/04/25 04:45:11;;;;;;;11.45;4.28;;;;;;;;;;5041159;28;20943;-75
2022/04/25 04:47:39;;;;;;;14.27;4.40;;;;;;;;;;5038346;28;20059;-75
2022/04/25 04:50:07;;;;;;;8.90;3.80;;;;;;;;;;5037126;28;20073;-75
2022/04/25 04:52:34;;;;;;;9.43;4.00;;;;;;;;;;5039640;28;20122;-75
2022/04/25 04:55:01;;;;;;;14.35;4.70;;;;;;;;;;5040725;28;20061;-75
2022/04/25 04:57:28;;;;;;;9.60;4.35;;;;;;;;;;5038558;28;20097;-75
2022/04/25 04:59:57;;;;;;;9.38;3.92;;;;;;;;;;5040963;28;20541;-76
2022/04/25 05:02:25;;;;;;;11.27;3.80;;;;;;;;;;5038790;28;20053;-75
2022/04/25 05:04:53;;;;;;;11.30;4.15;;;;;;;;;;5041716;28;20397;-75
2022/04/25 05:07:20;;;;;;;10.38;4.05;;;;;;;;;;5041876;28;20055;-75
2022/04/25 05:09:48;;;;;;;9.98;4.20;;;;;;;;;;5038000;28;20052;-75
2022/04/25 05:12:15;;;;;;;11.70;4.25;;;;;;;;;;5041906;28;20095;-75
2022/04/25 05:14:42;;;;;;;9.48;4.20;;;;;;;;;;5038685;28;20453;-75
2022/04/25 05:17:11;;;;;;;13.13;4.20;;;;;;;;;;5038831;28;20454;-75
2022/04/25 05:19:38;;;;;;;10.35;3.85;;;;;;;;;;5039683;28;20049;-75
2022/04/25 05:22:06;;;;;;;12.70;4.80;;;;;;;;;;5035340;28;20104;-74
2022/04/25 05:24:33;;;;;;;8.98;3.95;;;;;;;;;;5037977;28;20056;-74
2022/04/25 05:27:00;;;;;;;12.80;4.40;;;;;;;;;;5042895;28;20501;-75
2022/04/25 05:29:28;;;;;;;9.52;4.25;;;;;;;;;;5039450;28;20067;-75
2022/04/25 05:31:55;;;;;;;10.35;4.10;;;;;;;;;;5042029;28;20060;-75
2022/04/25 05:34:24;;;;;;;12.50;4.47;;;;;;;;;;5040185;28;20199;-75
2022/04/25 05:36:51;;;;;;;12.90;4.43;;;;;;;;;;5046172;28;20719;-75
2022/04/25 05:39:18;;;;;;;10.52;4.55;;;;;;;;;;5040431;28;20060;-75
2022/04/25 05:41:46;;;;;;;11.60;4.03;;;;;;;;;;5042857;28;20049;-75
2022/04/25 05:44:14;;;;;;;13.52;4.50;;;;;;;;;;5040876;28;20136;-75
2022/04/25 05:46:41;;;;;;;13.02;4.90;;;;;;;;;;5045255;28;20041;-75
2022/04/25 05:52:02;;;;;;;9.73;4.80;;;;;;;;;;5034972;28;20068;-75
2022/04/25 05:54:29;;;;;;;13.13;5.13;;;;;;;;;;5041277;28;20225;-74
2022/04/25 05:56:56;;;;;;;14.88;5.47;;;;;;;;;;5033968;28;20107;-74
2022/04/25 05:59:24;;;;;;;10.45;4.75;;;;;;;;;;5037244;28;20607;-74
2022/04/25 06:01:53;;;;;;;13.80;5.10;;;;;;;;;;5035063;28;20590;-74
2022/04/25 06:04:21;;;;;;;11.50;5.32;;;;;;;;;;5030268;28;20054;-74
2022/04/25 06:06:48;;;;;;;10.98;4.50;;;;;;;;;;5040660;28;20060;-75
2022/04/25 06:09:18;;;;;;;10.98;4.40;;;;;;;;;;5041228;28;20438;-75
2022/04/25 06:11:45;;;;;;;10.68;4.85;;;;;;;;;;5038360;28;20430;-75
2022/04/25 06:14:13;;;;;;;9.32;5.13;;;;;;;;;;5038819;28;20053;-75
2022/04/25 06:16:43;;;;;;;10.00;4.82;;;;;;;;;;5036533;28;20124;-77
2022/04/25 06:19:11;;;;;;;13.27;5.00;;;;;;;;;;5045289;28;20076;-75
2022/04/25 06:21:39;;;;;;;11.60;4.85;;;;;;;;;;5035053;28;20099;-75
2022/04/25 06:24:06;;;;;;;12.38;5.13;;;;;;;;;;5043022;28;20538;-75
2022/04/25 06:26:36;;;;;;;12.25;4.85;;;;;;;;;;5040796;28;20037;-75
2022/04/25 06:29:04;;;;;;;14.73;4.40;;;;;;;;;;5044150;28;20052;-75
2022/04/25 06:31:31;;;;;;;12.68;4.72;;;;;;;;;;5038938;28;20060;-75
2022/04/25 06:33:59;;;;;;;12.88;4.43;;;;;;;;;;5039664;28;20057;-75
2022/04/25 06:36:26;;;;;;;11.18;4.35;;;;;;;;;;5043459;28;20626;-75
2022/04/25 06:38:54;;;;;;;14.35;4.40;;;;;;;;;;5037338;28;20045;-75
2022/04/25 06:41:22;;;;;;;13.93;4.00;;;;;;;;;;5040203;28;20049;-75
2022/04/25 06:43:50;;;;;;;12.20;3.55;;;;;;;;;;5037202;28;20144;-74
2022/04/25 06:46:18;;;;;;;11.70;3.30;;;;;;;;;;5040992;28;20092;-77
2022/04/25 06:49:19;;;;;;;16.38;3.70;;;;;;;;;;5040194;28;20481;-75
2022/04/25 06:51:33;;;;;;;17.25;4.25;;;;;;;;;;5035180;28;20579;-75
2022/04/25 06:54:00;;;;;;;18.00;3.83;;;;;;;;;;5036284;28;20577;-74
2022/04/25 06:56:27;;;;;;;12.00;3.80;;;;;;;;;;5040738;28;20048;-74
2022/04/25 06:58:56;;;;;;;11.25;3.45;;;;;;;;;;5039163;28;20076;-74
2022/04/25 07:01:23;;;;;;;13.93;3.95;;;;;;;;;;5039764;28;20531;-75
2022/04/25 07:03:51;;;;;;;11.13;3.60;;;;;;;;;;5033811;28;20053;-75
2022/04/25 07:06:18;;;;;;;12.10;3.47;;;;;;;;;;5035669;28;20040;-75
2022/04/25 07:08:45;;;;;;;11.70;4.05;;;;;;;;;;5033206;28;20061;-75
2022/04/25 07:11:12;;;;;;;17.15;3.70;;;;;;;;;;5039983;28;20068;-75
2022/04/25 07:13:41;;;;;;;13.75;3.75;;;;;;;;;;5036689;28;20447;-75
2022/04/25 07:16:12;;;;;;;14.40;3.75;;;;;;;;;;5037405;28;20142;-75
2022/04/25 07:18:39;;;;;;;15.55;3.55;;;;;;;;;;5031810;28;20131;-75
2022/04/25 07:28:48;;;;;;;13.68;3.53;;;;;;;;;;5038649;28;20141;-74
2022/04/25 07:29:26;;;;;;;10.95;3.85;;;;;;;;;;5037373;28;20132;-75
2022/04/25 07:31:55;;;;;;;12.70;3.92;;;;;;;;;;5037436;28;20049;-74
2022/04/25 07:34:22;;;;;;;13.73;3.80;;;;;;;;;;5043773;28;20575;-74
2022/04/25 07:36:51;;;;;;;14.05;3.40;;;;;;;;;;5031874;28;20658;-74
2022/04/25 07:39:19;;;;;;;11.48;3.45;;;;;;;;;;5043797;28;20084;-74
2022/04/25 07:41:46;;;;;;;10.52;4.20;;;;;;;;;;5040844;28;20475;-74
2022/04/25 07:44:13;;;;;;;11.02;3.42;;;;;;;;;;5038557;28;20064;-74
2022/04/25 07:46:41;;;;;;;10.73;3.40;;;;;;;;;;5042577;28;20041;-74
2022/04/25 07:49:10;;;;;;;13.48;3.28;;;;;;;;;;5038420;28;20144;-74
2022/04/25 07:51:37;;;;;;;14.63;3.65;;;;;;;;;;5035728;28;20535;-74
2022/04/25 07:54:05;;;;;;;9.52;3.38;;;;;;;;;;5043834;28;20477;-74
2022/04/25 07:56:32;;;;;;;15.05;3.60;;;;;;;;;;5042839;28;20052;-74
2022/04/25 07:59:01;;;;;;;10.82;3.50;;;;;;;;;;5044497;28;20519;-75
2022/04/25 08:01:28;;;;;;;12.63;3.38;;;;;;;;;;5041445;28;20056;-75
2022/04/25 08:03:55;;;;;;;7.65;3.00;;;;;;;;;;5041426;28;20142;-74
2022/04/25 08:06:24;;;;;;;13.98;3.35;;;;;;;;;;5039055;28;20084;-74
2022/04/25 08:08:51;;;;;;;10.60;3.58;;;;;;;;;;5041380;28;20520;-74
2022/04/25 08:11:18;;;;;;;9.98;2.90;;;;;;;;;;5042224;28;20102;-74
2022/04/25 08:19:24;;;;;;;15.45;3.58;;;;;;;;;;4990592;28;20120;-75
2022/04/25 08:21:53;;;;;;;7.93;3.08;;;;;;;;;;5041372;28;20053;-75
2022/04/25 08:24:20;;;;;;;9.98;2.78;;;;;;;;;;5039351;28;20415;-75
2022/04/25 08:26:47;;;;;;;12.23;3.22;;;;;;;;;;5038278;28;20044;-75
2022/04/25 08:29:15;;;;;;;11.35;2.83;;;;;;;;;;5042390;28;20067;-75
2022/04/25 08:31:42;;;;;;;7.22;2.90;;;;;;;;;;5039195;28;20154;-75
2022/04/25 08:34:09;;;;;;;8.73;2.35;;;;;;;;;;5041572;28;20056;-75
2022/04/25 08:36:37;;;;;;;13.15;3.10;;;;;;;;;;5042537;28;20159;-75
2022/04/25 08:39:06;;;;;;;9.35;2.85;;;;;;;;;;5031508;28;20815;-75
2022/04/25 08:41:36;;;;;;;8.05;2.67;;;;;;;;;;5038878;28;20052;-75
2022/04/25 08:44:04;;;;;;;8.73;2.83;;;;;;;;;;5030813;28;20053;-75
2022/04/25 08:46:34;;;;;;;8.27;2.70;;;;;;;;;;5040219;28;20417;-75
2022/04/25 08:49:03;;;;;;;9.63;3.20;;;;;;;;;;5038013;28;20110;-76
2022/04/25 08:51:30;;;;;;;8.77;3.05;;;;;;;;;;5036457;28;20065;-75
2022/04/25 08:53:58;;;;;;;10.18;3.28;;;;;;;;;;5038623;28;20064;-75
2022/04/25 08:56:27;;;;;;;10.68;2.47;;;;;;;;;;5045819;28;20384;-75
2022/04/25 08:58:56;;;;;;;9.05;2.70;;;;;;;;;;5046372;28;20060;-75
2022/04/25 09:01:23;;;;;;;7.43;2.33;;;;;;;;;;5046608;28;20167;-75
2022/04/25 09:03:51;;;;;;;9.77;2.28;;;;;;;;;;5043257;28;20179;-75
2022/04/25 09:06:18;;;;;;;7.47;2.72;;;;;;;;;;5044592;28;20060;-75
2022/04/25 09:08:47;;;;;;;9.30;2.88;;;;;;;;;;5047931;28;20186;-75
2022/04/25 09:14:01;;;;;;;9.07;2.50;;;;;;;;;;5036890;28;20053;-76
2022/04/25 09:16:29;;;;;;;11.10;2.55;;;;;;;;;;5042061;28;20094;-75
2022/04/25 09:18:56;;;;;;;15.40;3.00;;;;;;;;;;5044464;28;20048;-74
2022/04/25 09:21:23;;;;;;;10.30;2.60;;;;;;;;;;5036746;28;20045;-75
2022/04/25 09:23:50;;;;;;;6.18;2.33;;;;;;;;;;5040594;28;20053;-75
2022/04/25 09:26:20;;;;;;;7.82;2.20;;;;;;;;;;5040072;28;20388;-76
2022/04/25 09:28:48;;;;;;;6.72;2.60;;;;;;;;;;5034567;28;20100;-75
2022/04/25 09:31:17;;;;;;;6.05;2.20;;;;;;;;;;5036202;28;20053;-75
2022/04/25 09:33:44;;;;;;;7.80;2.60;;;;;;;;;;5034696;28;20440;-75
2022/04/25 09:36:11;;;;;;;8.60;2.63;;;;;;;;;;5037001;28;20459;-75
2022/04/25 09:38:39;;;;;;;7.60;2.45;;;;;;;;;;5032798;28;20053;-75
2022/04/25 09:41:08;;;;;;;9.40;2.70;;;;;;;;;;5044159;28;20099;-75
2022/04/25 09:43:38;;;;;;;6.18;2.25;;;;;;;;;;5038806;28;20103;-75
2022/04/25 09:46:07;;;;;;;6.75;2.50;;;;;;;;;;5035801;28;20133;-75
2022/04/25 09:48:36;;;;;;;8.93;2.28;;;;;;;;;;5040560;28;20045;-75
2022/04/25 09:51:04;;;;;;;8.30;2.50;;;;;;;;;;5042625;28;20388;-75
2022/04/25 09:53:41;;;;;;;8.40;2.47;;;;;;;;;;5038086;28;20566;-75
2022/04/25 09:56:12;;;;;;;6.72;2.75;;;;;;;;;;5042745;28;20127;-75
2022/04/25 09:58:40;;;;;;;9.32;2.60;;;;;;;;;;5043091;28;20049;-75
2022/04/25 10:01:13;;;;;;;5.07;1.92;;;;;;;;;;5043835;28;20078;-75
2022/04/25 10:03:42;;;;;;;8.73;2.63;;;;;;;;;;5038733;28;20066;-75
2022/04/25 10:06:09;;;;;;;6.78;2.40;;;;;;;;;;5048229;28;20061;-75
2022/04/25 10:08:37;;;;;;;7.90;2.65;;;;;;;;;;5045585;28;20244;-75
2022/04/25 10:11:07;;;;;;;7.70;2.40;;;;;;;;;;5044459;28;20065;-75
2022/04/25 10:13:34;;;;;;;8.73;2.50;;;;;;;;;;5037617;28;20057;-75
2022/04/25 10:16:02;;;;;;;8.70;2.83;;;;;;;;;;5041669;28;20102;-75
2022/04/25 10:18:31;;;;;;;8.02;2.05;;;;;;;;;;5042370;28;20115;-75
2022/04/25 10:21:00;;;;;;;7.55;2.70;;;;;;;;;;5043738;28;20620;-75
2022/04/25 10:23:28;;;;;;;10.25;2.60;;;;;;;;;;5039616;28;20057;-75
2022/04/25 10:25:56;;;;;;;7.80;2.38;;;;;;;;;;5041608;28;20046;-75
2022/04/25 10:28:27;;;;;;;6.63;2.47;;;;;;;;;;5039838;28;20050;-75
2022/04/25 10:30:59;;;;;;;12.85;2.72;;;;;;;;;;5038914;28;20829;-75
2022/04/25 10:33:26;;;;;;;7.00;2.85;;;;;;;;;;5044655;28;20173;-75
2022/04/25 10:35:54;;;;;;;7.53;2.60;;;;;;;;;;5033606;28;20088;-75
2022/04/25 10:38:51;;;;;;;12.40;2.80;;;;;;;;;;5044121;28;20099;-75
2022/04/25 10:44:11;;;;;;;9.30;2.63;;;;;;;;;;5044436;28;20435;-75
2022/04/25 10:46:53;;;;;;;14.05;2.92;;;;;;;;;;5039619;28;20154;-75
2022/04/25 10:49:28;;;;;;;6.60;2.97;;;;;;;;;;5037505;28;20041;-75
2022/04/25 10:51:55;;;;;;;10.77;2.70;;;;;;;;;;5038671;28;20053;-75
2022/04/25 10:54:27;;;;;;;9.38;2.58;;;;;;;;;;5032068;28;20062;-75
2022/04/25 10:57:13;;;;;;;9.57;2.50;;;;;;;;;;5036457;28;20064;-75
2022/04/25 10:59:40;;;;;;;10.10;2.80;;;;;;;;;;5041195;28;20057;-75
2022/04/25 11:02:21;;;;;;;8.00;2.80;;;;;;;;;;5038221;28;20466;-75
2022/04/25 11:04:48;;;;;;;10.40;2.70;;;;;;;;;;5038726;28;20115;-75
2022/04/25 11:07:24;;;;;;;13.20;2.40;;;;;;;;;;5046577;28;20053;-75
2022/04/25 11:09:52;;;;;;;9.30;2.50;;;;;;;;;;5042355;28;20115;-75
2022/04/25 11:12:20;;;;;;;14.10;2.20;;;;;;;;;;5046123;28;20190;-75
2022/04/25 11:14:57;;;;;;;12.50;2.60;;;;;;;;;;5040554;28;20052;-75
2022/04/25 11:17:24;;;;;;;12.07;2.80;;;;;;;;;;5037530;28;20139;-75
2022/04/25 11:19:54;;;;;;;8.90;2.63;;;;;;;;;;5037014;28;20060;-75
2022/04/25 11:22:46;;;;;;;9.80;2.90;;;;;;;;;;5037690;28;20049;-75
2022/04/25 11:25:32;;;;;;;7.18;2.67;;;;;;;;;;5040221;28;20546;-75
2022/04/25 11:28:04;;;;;;;11.40;3.20;;;;;;;;;;5040035;28;20049;-75
2022/04/25 11:30:31;;;;;;;7.25;2.35;;;;;;;;;;5045588;28;20061;-75
2022/04/25 11:33:03;;;;;;;6.95;2.40;;;;;;;;;;5041448;28;20203;-75
2022/04/25 11:35:30;;;;;;;7.25;2.53;;;;;;;;;;5040205;28;20476;-75
2022/04/25 11:37:57;;;;;;;13.80;2.80;;;;;;;;;;5036336;28;20515;-75
2022/04/25 11:40:26;;;;;;;9.57;2.60;;;;;;;;;;5035570;28;20443;-75
2022/04/25 11:42:54;;;;;;;9.77;2.67;;;;;;;;;;5042585;28;20053;-74
2022/04/25 11:45:23;;;;;;;8.27;2.80;;;;;;;;;;5044550;28;20049;-74
2022/04/25 11:47:50;;;;;;;7.88;2.65;;;;;;;;;;5035970;28;20086;-74
2022/04/25 11:50:20;;;;;;;8.63;2.58;;;;;;;;;;5043869;28;20125;-74
2022/04/25 11:52:48;;;;;;;10.18;2.80;;;;;;;;;;5044128;28;20053;-74
2022/04/25 11:55:15;;;;;;;5.30;2.33;;;;;;;;;;5041954;28;20394;-75
2022/04/25 11:57:45;;;;;;;7.70;2.85;;;;;;;;;;5038146;28;20051;-75
2022/04/25 12:00:17;;;;;;;10.93;2.53;;;;;;;;;;5034517;28;20159;-75
2022/04/25 12:02:47;;;;;;;9.13;2.25;;;;;;;;;;5036075;28;20055;-75
2022/04/25 12:05:14;;;;;;;8.77;2.58;;;;;;;;;;5035465;28;20381;-75
2022/04/25 12:15:59;;;;;;;11.38;3.15;;;;;;;;;;5033421;28;20063;-76
2022/04/25 12:18:28;;;;;;;6.45;2.58;;;;;;;;;;5040710;28;20099;-76
2022/04/25 12:21:01;;;;;;;10.02;2.67;;;;;;;;;;5036504;28;20067;-76
2022/04/25 12:23:29;;;;;;;8.38;2.58;;;;;;;;;;5034232;28;20045;-76
2022/04/25 12:25:58;;;;;;;6.65;1.98;;;;;;;;;;5039232;28;20404;-76
2022/04/25 12:28:26;;;;;;;9.18;2.28;;;;;;;;;;5040955;28;20487;-76
2022/04/25 12:30:54;;;;;;;8.98;2.53;;;;;;;;;;5037413;28;21059;-76
2022/04/25 12:33:22;;;;;;;6.40;2.58;;;;;;;;;;5036783;28;20048;-76
2022/04/25 12:35:52;;;;;;;8.07;2.65;;;;;;;;;;5029951;28;20436;-76
2022/04/25 12:38:39;;;;;;;12.20;2.40;;;;;;;;;;5035379;28;20080;-76
2022/04/25 12:41:07;;;;;;;5.65;2.10;;;;;;;;;;5032004;28;20136;-76
2022/04/25 12:43:44;;;;;;;7.93;2.75;;;;;;;;;;5036253;28;20115;-76
2022/04/25 12:46:12;;;;;;;9.48;2.45;;;;;;;;;;5052894;28;20079;-76
2022/04/25 12:48:59;;;;;;;5.18;2.30;;;;;;;;;;5034823;28;20532;-76
2022/04/25 12:51:28;;;;;;;5.95;2.25;;;;;;;;;;5032034;28;20091;-76
2022/04/25 12:53:55;;;;;;;4.72;1.80;;;;;;;;;;5039150;28;20405;-75
2022/04/25 12:56:26;;;;;;;9.85;2.28;;;;;;;;;;5039863;28;20065;-76
2022/04/25 12:58:54;;;;;;;5.95;2.10;;;;;;;;;;5027560;28;20057;-76
2022/04/25 13:01:32;;;;;;;5.68;2.00;;;;;;;;;;5032181;28;20068;-79
2022/04/25 13:04:06;;;;;;;8.40;2.00;;;;;;;;;;5036708;28;20568;-77
2022/04/25 13:06:35;;;;;;;5.47;2.10;;;;;;;;;;5032393;28;20057;-78
2022/04/25 13:09:03;;;;;;;4.93;1.75;;;;;;;;;;5036399;28;20041;-77
2022/04/25 13:11:30;;;;;;;10.73;2.22;;;;;;;;;;5039114;28;20110;-78
2022/04/25 13:13:57;;;;;;;10.40;2.38;;;;;;;;;;5036684;28;20057;-77
2022/04/25 13:16:25;;;;;;;6.47;2.13;;;;;;;;;;5038635;28;20718;-78
2022/04/25 13:18:52;;;;;;;6.10;2.25;;;;;;;;;;5037856;28;20455;-78
2022/04/25 13:21:20;;;;;;;8.27;2.10;;;;;;;;;;5039449;28;20831;-78
2022/04/25 13:23:49;;;;;;;13.60;2.58;;;;;;;;;;5035056;28;20053;-78
2022/04/25 13:26:16;;;;;;;8.38;2.05;;;;;;;;;;5042532;28;20102;-78
2022/04/25 13:28:44;;;;;;;7.55;1.95;;;;;;;;;;5037019;28;20057;-78
2022/04/25 13:31:11;;;;;;;4.25;1.98;;;;;;;;;;5039143;28;20075;-78
2022/04/25 13:33:39;;;;;;;3.63;2.00;;;;;;;;;;5035271;28;20049;-78
2022/04/25 13:36:07;;;;;;;6.70;1.98;;;;;;;;;;5035936;28;20084;-78
2022/04/25 13:38:34;;;;;;;5.50;1.67;;;;;;;;;;5037805;28;20056;-77
2022/04/25 13:41:03;;;;;;;6.28;2.15;;;;;;;;;;5043356;28;20071;-77
2022/04/25 13:43:31;;;;;;;5.97;2.08;;;;;;;;;;5037135;28;20099;-77
2022/04/25 13:45:59;;;;;;;5.07;1.92;;;;;;;;;;5040587;28;20057;-78
2022/04/25 13:48:26;;;;;;;6.38;2.10;;;;;;;;;;5038441;28;20443;-78
2022/04/25 13:50:54;;;;;;;6.78;2.30;;;;;;;;;;5038442;28;20493;-77
2022/04/25 13:53:21;;;;;;;6.35;1.77;;;;;;;;;;5036860;28;20103;-77
2022/04/25 13:55:49;;;;;;;3.83;1.67;;;;;;;;;;5040597;28;20068;-77
2022/04/25 13:58:18;;;;;;;9.60;2.30;;;;;;;;;;5041253;28;20428;-78
2022/04/25 14:00:45;;;;;;;6.53;2.20;;;;;;;;;;5038253;28;20053;-77
2022/04/25 14:03:13;;;;;;;5.35;2.05;;;;;;;;;;5041632;28;20067;-77
2022/04/25 14:05:41;;;;;;;4.95;2.20;;;;;;;;;;5039578;28;20079;-77
2022/04/25 14:08:09;;;;;;;3.38;1.90;;;;;;;;;;5042381;28;20049;-77
2022/04/25 14:10:37;;;;;;;5.57;2.05;;;;;;;;;;5038582;28;20049;-77
2022/04/25 14:13:05;;;;;;;6.47;1.83;;;;;;;;;;5040150;28;20057;-77
2022/04/25 14:15:34;;;;;;;7.00;2.53;;;;;;;;;;5039805;28;20097;-77
2022/04/25 14:18:02;;;;;;;4.47;1.80;;;;;;;;;;5043432;28;20053;-77
2022/04/25 14:20:30;;;;;;;6.80;1.90;;;;;;;;;;5042811;28;20045;-78
2022/04/25 14:22:58;;;;;;;7.05;1.70;;;;;;;;;;5043618;28;20052;-78
2022/04/25 14:25:26;;;;;;;6.55;2.05;;;;;;;;;;5045436;28;20109;-78
2022/04/25 14:27:53;;;;;;;5.32;1.80;;;;;;;;;;5042472;28;20060;-78
2022/04/25 14:30:22;;;;;;;5.13;1.70;;;;;;;;;;5040657;28;20052;-78
2022/04/25 14:32:50;;;;;;;4.68;1.65;;;;;;;;;;5043356;28;20076;-78
2022/04/25 14:35:18;;;;;;;7.38;2.10;;;;;;;;;;5044415;28;20076;-78
2022/04/25 14:37:45;;;;;;;4.95;1.77;;;;;;;;;;5040734;28;20061;-78
2022/04/25 14:40:13;;;;;;;5.72;2.30;;;;;;;;;;5041034;28;20084;-76
2022/04/25 14:42:40;;;;;;;11.13;2.88;;;;;;;;;;5042987;28;20084;-76
2022/04/25 14:45:08;;;;;;;7.68;2.47;;;;;;;;;;5043313;28;20060;-76
2022/04/25 14:47:36;;;;;;;7.25;2.42;;;;;;;;;;5044960;28;20465;-77
2022/04/25 14:55:35;;;;;;;8.90;2.90;;;;;;;;;;5041181;28;20060;-78
2022/04/25 14:58:05;;;;;;;6.72;2.67;;;;;;;;;;5041323;28;20097;-77
2022/04/25 15:00:32;;;;;;;7.05;2.70;;;;;;;;;;5037402;28;20192;-78
2022/04/25 15:02:59;;;;;;;10.13;2.47;;;;;;;;;;5038467;28;20536;-77
2022/04/25 15:05:28;;;;;;;6.03;2.55;;;;;;;;;;5036368;28;20060;-78
2022/04/25 15:07:55;;;;;;;5.82;2.20;;;;;;;;;;5045344;28;20049;-77
2022/04/25 15:10:22;;;;;;;6.88;2.47;;;;;;;;;;5039559;28;20399;-77
2022/04/25 15:12:50;;;;;;;6.63;1.98;;;;;;;;;;5039771;28;20053;-78
2022/04/25 15:15:17;;;;;;;6.30;2.50;;;;;;;;;;5038433;28;20431;-78
2022/04/25 15:17:44;;;;;;;9.55;2.72;;;;;;;;;;5038205;28;20048;-77
2022/04/25 15:20:12;;;;;;;17.00;2.63;;;;;;;;;;5039471;28;20094;-76
2022/04/25 15:22:40;;;;;;;12.45;2.40;;;;;;;;;;5038616;28;20049;-76
2022/04/25 15:25:08;;;;;;;6.10;2.40;;;;;;;;;;5042569;28;20041;-76
2022/04/25 15:27:36;;;;;;;6.15;2.25;;;;;;;;;;5037128;28;20057;-76
2022/04/25 15:30:03;;;;;;;5.38;2.30;;;;;;;;;;5041179;28;20063;-76